createdAt,value
2022-12-15T00:02:20.227Z,82.20
2022-12-15T00:05:15.356Z,85.60
2022-12-15T00:08:05.421Z,86.10
2022-12-15T00:10:55.458Z,86.10
2022-12-15T00:13:45.405Z,86.70
2022-12-15T00:16:35.684Z,84.00
2022-12-15T00:19:28.015Z,86.60
2022-12-15T00:22:18.455Z,88.50
2022-12-15T00:25:08.320Z,88.50
2022-12-15T00:27:58.236Z,90.20
2022-12-15T00:30:50.024Z,85.70
2022-12-15T00:33:40.448Z,89.80
2022-12-15T00:36:30.621Z,88.50
2022-12-15T00:39:10.447Z,88.20
2022-12-15T00:41:43.336Z,88.20
2022-12-15T00:44:20.332Z,88.60
2022-12-15T00:46:56.316Z,93.10
2022-12-15T00:49:48.252Z,88.50
2022-12-15T00:52:40.270Z,85.80
2022-12-15T00:55:33.785Z,90.40
2022-12-15T00:58:26.442Z,89.10
2022-12-15T01:01:16.372Z,87.90
2022-12-15T01:04:06.313Z,87.00
2022-12-15T01:06:56.530Z,86.30
2022-12-15T01:09:46.668Z,90.60
2022-12-15T01:12:36.620Z,92.40
2022-12-15T01:15:28.153Z,91.40
2022-12-15T01:18:18.513Z,93.80
2022-12-15T01:20:59.746Z,93.90
2022-12-15T01:23:32.726Z,93.90
2022-12-15T01:26:08.930Z,93.40
2022-12-15T01:28:44.563Z,95.70
2022-12-15T01:31:17.554Z,95.10
2022-12-15T01:33:54.426Z,91.50
2022-12-15T01:36:28.850Z,92.50
2022-12-15T01:39:02.037Z,91.30
2022-12-15T01:41:34.195Z,91.50
2022-12-15T01:44:20.925Z,95.50
2022-12-15T01:46:56.626Z,93.20
2022-12-15T01:49:32.650Z,90.80
2022-12-15T01:52:16.541Z,95.50
2022-12-15T01:54:52.381Z,89.90
2022-12-15T01:57:30.194Z,88.90
2022-12-15T02:00:09.684Z,90.40
2022-12-15T02:02:45.153Z,92.30
2022-12-15T02:05:21.727Z,89.10
2022-12-15T02:07:53.939Z,90.00
2022-12-15T02:10:29.988Z,92.60
2022-12-15T02:13:11.234Z,90.90
2022-12-15T02:15:50.259Z,96.00
2022-12-15T02:18:33.525Z,98.00
2022-12-15T02:21:11.354Z,94.60
2022-12-15T02:24:11.652Z,96.30
2022-12-15T02:27:08.804Z,95.30
2022-12-15T02:30:06.995Z,96.00
2022-12-15T02:32:44.919Z,97.40
2022-12-15T02:35:23.757Z,103.30
2022-12-15T02:37:58.821Z,106.60
2022-12-15T02:40:31.240Z,104.60
2022-12-15T02:43:06.704Z,103.20
2022-12-15T02:45:47.542Z,108.00
2022-12-15T02:48:31.184Z,102.10
2022-12-15T02:51:19.985Z,105.60
2022-12-15T02:54:08.015Z,105.00
2022-12-15T02:56:50.202Z,108.00
2022-12-15T02:59:30.837Z,98.20
2022-12-15T03:02:09.443Z,93.50
2022-12-15T03:04:44.076Z,100.60
2022-12-15T03:07:17.665Z,101.60
2022-12-15T03:09:50.108Z,97.30
2022-12-15T03:12:22.266Z,103.70
2022-12-15T03:14:58.064Z,102.80
2022-12-15T03:17:30.451Z,100.80
2022-12-15T03:20:02.955Z,104.80
2022-12-15T03:22:35.178Z,110.50
2022-12-15T03:25:08.840Z,101.80
2022-12-15T03:27:45.755Z,89.30
2022-12-15T03:33:09.796Z,89.80
2022-12-15T03:35:42.375Z,92.80
2022-12-15T03:38:15.765Z,91.80
2022-12-15T03:40:48.293Z,91.00
2022-12-15T03:43:20.566Z,92.80
2022-12-15T03:45:52.908Z,94.80
2022-12-15T03:48:27.509Z,100.60
2022-12-15T03:51:02.668Z,99.60
2022-12-15T03:53:35.147Z,103.10
2022-12-15T03:56:08.054Z,102.10
2022-12-15T03:58:40.502Z,105.50
2022-12-15T04:01:29.088Z,103.30
2022-12-15T04:04:02.626Z,105.80
2022-12-15T04:06:35.004Z,100.80
2022-12-15T04:09:12.861Z,101.10
2022-12-15T04:11:44.918Z,99.00
2022-12-15T04:14:17.401Z,100.20
2022-12-15T04:16:49.596Z,94.60
2022-12-15T04:19:39.477Z,93.60
2022-12-15T04:22:14.986Z,91.20
2022-12-15T04:25:07.855Z,94.40
2022-12-15T04:28:01.538Z,89.60
2022-12-15T04:30:52.226Z,88.00
2022-12-15T04:33:45.177Z,86.30
2022-12-15T04:36:38.250Z,83.10
2022-12-15T04:39:30.962Z,82.80
2022-12-15T04:42:21.991Z,88.10
2022-12-15T04:45:20.630Z,90.60
2022-12-15T04:48:15.543Z,91.10
2022-12-15T04:51:06.681Z,93.70
2022-12-15T04:53:56.782Z,95.70
2022-12-15T04:56:46.805Z,94.40
2022-12-15T04:59:40.076Z,97.40
2022-12-15T05:02:30.635Z,98.00
2022-12-15T05:05:21.360Z,98.10
2022-12-15T05:08:11.818Z,99.20
2022-12-15T05:11:01.891Z,98.30
2022-12-15T05:13:52.649Z,98.50
2022-12-15T05:16:42.517Z,98.70
2022-12-15T05:19:35.052Z,96.80
2022-12-15T05:22:24.998Z,98.70
2022-12-15T05:25:14.597Z,96.50
2022-12-15T05:28:04.620Z,94.30
2022-12-15T05:30:55.404Z,94.40
2022-12-15T05:33:27.685Z,90.80
2022-12-15T05:36:00.358Z,96.10
2022-12-15T05:38:32.607Z,99.90
2022-12-15T05:41:05.693Z,94.30
2022-12-15T05:43:40.323Z,96.90
2022-12-15T05:46:12.619Z,97.80
2022-12-15T05:48:44.844Z,99.00
2022-12-15T05:51:17.351Z,103.70
2022-12-15T05:53:49.506Z,101.00
2022-12-15T05:56:21.675Z,100.10
2022-12-15T05:58:53.894Z,100.60
2022-12-15T06:01:26.997Z,109.40
2022-12-15T06:04:00.416Z,109.50
2022-12-15T06:06:32.607Z,108.60
2022-12-15T06:09:04.809Z,104.90
2022-12-15T06:11:39.974Z,105.00
2022-12-15T06:14:12.815Z,108.70
2022-12-15T06:16:50.958Z,106.00
2022-12-15T06:19:24.655Z,119.60
2022-12-15T06:21:56.998Z,139.90
2022-12-15T06:24:29.560Z,150.60
2022-12-15T06:27:01.924Z,130.20
2022-12-15T06:29:36.536Z,120.40
2022-12-15T06:32:11.932Z,140.60
2022-12-15T06:34:46.789Z,164.40
2022-12-15T06:37:18.881Z,143.80
2022-12-15T06:39:54.223Z,145.40
2022-12-15T06:42:26.671Z,122.30
2022-12-15T06:44:59.383Z,120.40
2022-12-15T06:47:31.825Z,113.20
2022-12-15T06:50:04.167Z,114.10
2022-12-15T06:55:24.983Z,116.50
2022-12-15T06:58:01.924Z,112.50
2022-12-15T07:00:36.781Z,106.30
2022-12-15T07:03:12.236Z,105.90
2022-12-15T07:05:44.987Z,107.10
2022-12-15T07:08:18.502Z,102.10
2022-12-15T07:10:53.237Z,110.30
2022-12-15T07:13:25.880Z,108.10
2022-12-15T07:16:01.472Z,107.80
2022-12-15T07:18:34.000Z,108.00
2022-12-15T07:21:08.004Z,105.00
2022-12-15T07:23:54.156Z,106.70
2022-12-15T07:26:27.913Z,102.90
2022-12-15T07:29:02.635Z,110.60
2022-12-15T07:31:38.229Z,120.40
2022-12-15T07:34:13.337Z,155.00
2022-12-15T07:36:51.494Z,123.80
2022-12-15T07:39:29.990Z,120.70
2022-12-15T07:42:02.887Z,137.10
2022-12-15T07:44:35.073Z,125.60
2022-12-15T07:47:08.152Z,125.60
2022-12-15T07:49:40.254Z,115.50
2022-12-15T07:52:14.101Z,119.20
2022-12-15T07:54:46.756Z,130.90
2022-12-15T07:57:19.368Z,130.70
2022-12-15T07:59:51.755Z,121.20
2022-12-15T08:02:24.180Z,124.70
2022-12-15T08:04:56.796Z,140.10
2022-12-15T08:07:28.884Z,118.90
2022-12-15T08:10:01.090Z,119.40
2022-12-15T08:12:38.377Z,123.60
2022-12-15T08:15:13.712Z,128.40
2022-12-15T08:17:47.171Z,135.30
2022-12-15T08:20:19.417Z,122.30
2022-12-15T08:22:52.594Z,132.80
2022-12-15T08:25:25.238Z,120.50
2022-12-15T08:27:57.449Z,124.50
2022-12-15T08:30:30.267Z,107.60
2022-12-15T08:33:02.360Z,110.60
2022-12-15T08:35:55.670Z,111.70
2022-12-15T08:38:26.627Z,129.00
2022-12-15T08:40:59.085Z,167.40
2022-12-15T08:43:31.576Z,128.20
2022-12-15T08:46:06.909Z,118.10
2022-12-15T08:48:39.673Z,136.20
2022-12-15T08:51:12.256Z,134.50
2022-12-15T08:53:45.107Z,138.30
2022-12-15T08:56:22.246Z,127.40
2022-12-15T08:58:59.196Z,115.20
2022-12-15T09:01:33.505Z,133.20
2022-12-15T09:04:08.935Z,118.50
2022-12-15T09:06:41.268Z,125.00
2022-12-15T09:09:15.020Z,241.10
2022-12-15T09:11:47.070Z,154.00
2022-12-15T09:14:25.500Z,145.80
2022-12-15T09:16:59.951Z,142.20
2022-12-15T09:19:35.135Z,156.50
2022-12-15T09:22:07.949Z,150.90
2022-12-15T09:24:40.493Z,133.60
2022-12-15T09:27:12.608Z,138.50
2022-12-15T09:29:44.731Z,181.50
2022-12-15T09:32:17.151Z,148.00
2022-12-15T09:34:49.385Z,141.20
2022-12-15T09:37:23.082Z,145.90
2022-12-15T09:39:55.323Z,137.90
2022-12-15T09:42:30.209Z,189.60
2022-12-15T09:45:09.091Z,167.90
2022-12-15T09:47:51.214Z,158.90
2022-12-15T09:50:34.740Z,172.00
2022-12-15T09:53:45.418Z,162.30
2022-12-15T09:56:14.792Z,163.00
2022-12-15T09:58:55.732Z,143.80
2022-12-15T10:01:37.176Z,219.30
2022-12-15T10:04:20.168Z,159.90
2022-12-15T10:06:59.885Z,258.20
2022-12-15T10:09:32.509Z,194.40
2022-12-15T10:12:08.516Z,180.20
2022-12-15T10:14:44.236Z,147.20
2022-12-15T10:17:24.240Z,154.80
2022-12-15T10:20:07.774Z,130.10
2022-12-15T10:22:40.549Z,144.20
2022-12-15T10:25:25.434Z,136.80
2022-12-15T10:28:23.160Z,133.70
2022-12-15T10:31:00.592Z,140.00
2022-12-15T10:33:36.228Z,131.20
2022-12-15T10:36:14.108Z,140.00
2022-12-15T10:38:50.711Z,138.60
2022-12-15T10:41:26.882Z,131.10
2022-12-15T10:43:59.489Z,126.70
2022-12-15T10:46:33.313Z,126.80
2022-12-15T10:49:24.724Z,126.90
2022-12-15T10:52:02.570Z,125.90
2022-12-15T10:54:44.863Z,122.40
2022-12-15T10:57:21.067Z,143.40
2022-12-15T10:59:53.566Z,128.30
2022-12-15T11:02:37.166Z,131.30
2022-12-15T11:05:21.489Z,147.20
2022-12-15T11:07:56.661Z,150.70
2022-12-15T11:10:54.502Z,131.10
2022-12-15T11:13:33.001Z,127.80
2022-12-15T11:16:18.041Z,129.10
2022-12-15T11:18:54.901Z,127.30
2022-12-15T11:21:28.986Z,135.80
2022-12-15T11:24:13.725Z,140.00
2022-12-15T11:26:56.334Z,174.10
2022-12-15T11:29:34.876Z,199.80
2022-12-15T11:32:07.820Z,165.50
2022-12-15T11:34:43.027Z,163.10
2022-12-15T11:37:36.908Z,130.50
2022-12-15T11:40:34.386Z,128.80
2022-12-15T11:43:34.299Z,142.50
2022-12-15T11:46:19.955Z,150.30
2022-12-15T11:49:14.058Z,139.80
2022-12-15T11:51:53.749Z,157.80
2022-12-15T11:54:36.522Z,158.70
2022-12-15T11:57:32.666Z,151.60
2022-12-15T12:00:10.046Z,147.20
2022-12-15T12:03:03.556Z,158.30
2022-12-15T12:05:52.477Z,135.00
2022-12-15T12:08:40.461Z,147.50
2022-12-15T12:11:15.917Z,152.00
2022-12-15T12:14:05.333Z,129.40
2022-12-15T12:16:45.497Z,134.50
2022-12-15T12:19:21.062Z,142.90
2022-12-15T12:22:00.418Z,129.40
2022-12-15T12:24:39.872Z,127.20
2022-12-15T12:27:25.536Z,129.90
2022-12-15T12:30:03.774Z,134.00
2022-12-15T12:32:45.340Z,129.60
2022-12-15T12:35:31.937Z,129.70
2022-12-15T12:38:20.319Z,136.70
2022-12-15T12:41:03.758Z,147.10
2022-12-15T12:43:37.661Z,160.50
2022-12-15T12:46:18.874Z,147.60
2022-12-15T12:48:56.238Z,145.00
2022-12-15T12:51:33.149Z,157.60
2022-12-15T12:54:26.339Z,157.60
2022-12-15T12:56:58.738Z,139.70
2022-12-15T12:59:41.818Z,172.70
2022-12-15T13:02:47.646Z,173.20
2022-12-15T13:05:34.001Z,173.50
2022-12-15T13:08:51.337Z,188.90
2022-12-15T13:12:14.994Z,165.30
2022-12-15T13:14:56.637Z,172.40
2022-12-15T13:17:41.682Z,149.60
2022-12-15T13:20:27.000Z,149.30
2022-12-15T13:23:37.532Z,139.60
2022-12-15T13:26:19.474Z,162.30
2022-12-15T13:28:58.221Z,171.90
2022-12-15T13:31:42.021Z,180.90
2022-12-15T13:34:22.676Z,218.30
2022-12-15T13:37:36.900Z,179.40
2022-12-15T13:40:42.545Z,201.90
2022-12-15T13:43:38.576Z,173.00
2022-12-15T13:46:19.580Z,151.80
2022-12-15T13:48:56.821Z,145.40
2022-12-15T13:51:35.310Z,135.30
2022-12-15T13:54:18.137Z,152.30
2022-12-15T13:56:56.851Z,155.10
2022-12-15T13:59:42.617Z,138.40
2022-12-15T14:02:29.447Z,138.00
2022-12-15T14:05:16.114Z,148.90
2022-12-15T14:07:54.767Z,142.50
2022-12-15T14:10:35.435Z,171.30
2022-12-15T14:16:19.289Z,131.30
2022-12-15T14:32:20.086Z,118.30
2022-12-15T14:34:55.413Z,98.60
2022-12-15T14:37:27.821Z,100.70
2022-12-15T14:40:00.455Z,109.70
2022-12-15T14:42:33.635Z,107.20
2022-12-15T14:45:06.869Z,108.00
2022-12-15T14:47:40.522Z,125.40
2022-12-15T14:53:18.866Z,103.20
2022-12-15T14:55:51.485Z,100.60
2022-12-15T14:58:31.453Z,111.20
2022-12-15T15:01:07.299Z,106.70
2022-12-15T15:03:40.941Z,101.50
2022-12-15T15:06:20.985Z,93.00
2022-12-15T15:08:56.884Z,108.70
2022-12-15T15:11:34.090Z,118.60
2022-12-15T15:14:13.960Z,95.80
2022-12-15T15:16:46.807Z,83.10
2022-12-15T15:19:23.577Z,83.00
2022-12-15T15:21:55.745Z,79.40
2022-12-15T15:24:35.269Z,83.90
2022-12-15T15:27:27.810Z,83.50
2022-12-15T15:30:21.001Z,105.30
2022-12-15T15:32:56.620Z,100.20
2022-12-15T15:35:35.203Z,117.00
2022-12-15T15:38:18.712Z,93.50
2022-12-15T15:40:56.892Z,134.40
2022-12-15T15:43:31.798Z,117.60
2022-12-15T15:46:07.029Z,98.80
2022-12-15T15:48:44.827Z,110.80
2022-12-15T15:51:17.529Z,90.50
2022-12-15T15:53:51.172Z,78.00
2022-12-15T15:56:23.730Z,100.80
2022-12-15T15:58:56.132Z,104.20
2022-12-15T16:01:29.086Z,88.80
2022-12-15T16:04:02.405Z,80.60
2022-12-15T16:06:35.029Z,85.30
2022-12-15T16:09:08.201Z,82.40
2022-12-15T16:11:40.874Z,76.90
2022-12-15T16:14:16.293Z,79.20
2022-12-15T16:16:48.739Z,95.80
2022-12-15T16:19:21.084Z,79.10
2022-12-15T16:21:54.526Z,77.90
2022-12-15T16:24:26.834Z,98.50
2022-12-15T16:26:59.887Z,80.00
2022-12-15T16:29:32.151Z,67.00
2022-12-15T16:32:05.619Z,70.70
2022-12-15T16:34:39.296Z,79.60
2022-12-15T16:37:25.176Z,94.10
2022-12-15T16:39:57.586Z,90.20
2022-12-15T16:42:29.721Z,87.80
2022-12-15T16:45:02.017Z,93.00
2022-12-15T16:47:34.237Z,99.80
2022-12-15T16:50:07.808Z,90.90
2022-12-15T16:52:40.112Z,72.40
2022-12-15T16:55:20.920Z,82.70
2022-12-15T16:57:55.674Z,89.20
2022-12-15T17:00:32.454Z,76.30
2022-12-15T17:03:05.819Z,75.50
2022-12-15T17:05:39.450Z,94.00
2022-12-15T17:08:19.509Z,86.30
2022-12-15T17:10:52.659Z,97.20
2022-12-15T17:13:37.772Z,85.20
2022-12-15T17:16:14.811Z,88.60
2022-12-15T17:18:47.833Z,88.30
2022-12-15T17:21:24.938Z,98.70
2022-12-15T17:24:02.273Z,108.20
2022-12-15T17:26:37.822Z,116.90
2022-12-15T17:29:15.062Z,121.80
2022-12-15T17:31:50.672Z,163.40
2022-12-15T17:34:30.372Z,143.50
2022-12-15T17:37:04.832Z,127.60
2022-12-15T17:39:38.053Z,133.70
2022-12-15T17:42:18.820Z,127.00
2022-12-15T17:44:52.631Z,132.90
2022-12-15T17:47:25.527Z,136.60
2022-12-15T17:50:00.125Z,149.50
2022-12-15T17:52:34.829Z,141.60
2022-12-15T17:55:19.920Z,138.10
2022-12-15T17:57:55.931Z,135.50
2022-12-15T18:00:30.574Z,127.60
2022-12-15T18:03:03.585Z,136.60
2022-12-15T18:05:36.494Z,135.50
2022-12-15T18:08:16.545Z,137.20
2022-12-15T18:10:51.077Z,131.70
2022-12-15T18:13:26.922Z,122.00
2022-12-15T18:16:01.803Z,114.00
2022-12-15T18:18:35.060Z,108.50
2022-12-15T18:21:15.614Z,112.00
2022-12-15T18:23:48.479Z,117.50
2022-12-15T18:26:21.402Z,107.10
2022-12-15T18:28:53.685Z,102.80
2022-12-15T18:31:28.202Z,97.10
2022-12-15T18:34:04.350Z,98.90
2022-12-15T18:36:37.276Z,94.50
2022-12-15T18:39:20.059Z,96.20
2022-12-15T18:44:46.485Z,94.60
2022-12-15T18:47:20.749Z,94.10
2022-12-15T18:49:53.111Z,90.60
2022-12-15T18:52:32.983Z,92.40
2022-12-15T18:55:15.927Z,92.00
2022-12-15T18:57:48.805Z,95.60
2022-12-15T19:00:28.288Z,96.70
2022-12-15T19:03:01.429Z,96.80
2022-12-15T19:05:33.796Z,94.30
2022-12-15T19:08:13.356Z,91.50
2022-12-15T19:10:52.572Z,90.00
2022-12-15T19:13:26.538Z,92.30
2022-12-15T19:15:59.116Z,95.30
2022-12-15T19:18:45.383Z,100.60
2022-12-15T19:21:38.753Z,97.30
2022-12-15T19:24:15.926Z,96.10
2022-12-15T19:26:48.344Z,89.70
2022-12-15T19:29:22.690Z,95.00
2022-12-15T19:31:55.037Z,96.20
2022-12-15T19:34:27.959Z,89.50
2022-12-15T19:37:02.076Z,91.10
2022-12-15T19:39:35.409Z,90.00
2022-12-15T19:42:15.217Z,93.10
2022-12-15T19:44:47.396Z,92.80
2022-12-15T19:47:19.883Z,91.90
2022-12-15T19:49:52.938Z,95.90
2022-12-15T19:52:30.102Z,93.90
2022-12-15T19:55:05.415Z,94.50
2022-12-15T19:57:37.667Z,93.30
2022-12-15T20:00:17.899Z,93.10
2022-12-15T20:02:54.362Z,93.30
2022-12-15T20:05:28.221Z,101.40
2022-12-15T20:08:00.705Z,94.50
2022-12-15T20:10:33.720Z,93.90
2022-12-15T20:13:07.629Z,95.90
2022-12-15T20:15:39.768Z,92.10
2022-12-15T20:18:12.802Z,94.50
2022-12-15T20:20:50.623Z,98.00
2022-12-15T20:23:26.870Z,97.10
2022-12-15T20:28:47.715Z,93.90
2022-12-15T20:31:24.424Z,89.70
2022-12-15T20:33:57.112Z,90.10
2022-12-15T20:36:33.235Z,90.00
2022-12-15T20:39:05.685Z,88.70
2022-12-15T20:41:38.271Z,90.60
2022-12-15T20:44:15.596Z,87.70
2022-12-15T20:46:47.931Z,85.60
2022-12-15T20:49:24.892Z,82.10
2022-12-15T20:51:57.141Z,86.50
2022-12-15T20:54:29.292Z,83.30
2022-12-15T20:57:01.821Z,90.20
2022-12-15T20:59:34.162Z,94.50
2022-12-15T21:02:19.215Z,89.60
2022-12-15T21:04:52.556Z,94.80
2022-12-15T21:07:25.399Z,88.20
2022-12-15T21:09:57.976Z,87.80
2022-12-15T21:12:32.558Z,89.60
2022-12-15T21:15:08.087Z,95.00
2022-12-15T21:17:44.091Z,94.60
2022-12-15T21:20:16.818Z,91.70
2022-12-15T21:22:50.457Z,93.80
2022-12-15T21:25:27.603Z,90.40
2022-12-15T21:28:02.744Z,90.60
2022-12-15T21:30:36.010Z,96.20
2022-12-15T21:33:09.153Z,95.00
2022-12-15T21:35:42.366Z,92.40
2022-12-15T21:38:35.951Z,90.20
2022-12-15T21:41:13.922Z,92.40
2022-12-15T21:43:49.358Z,85.30
2022-12-15T21:46:27.858Z,82.10
2022-12-15T21:49:20.187Z,79.60
2022-12-15T21:51:55.720Z,81.70
2022-12-15T21:54:32.104Z,77.60
2022-12-15T21:57:04.538Z,79.10
2022-12-15T21:59:36.610Z,80.70
2022-12-15T22:02:26.618Z,78.40
2022-12-15T22:04:59.590Z,77.80
2022-12-15T22:07:31.849Z,76.00
2022-12-15T22:10:04.635Z,77.10
2022-12-15T22:12:36.787Z,82.10
2022-12-15T22:15:16.760Z,78.50
2022-12-15T22:17:49.790Z,79.70
2022-12-15T22:20:25.242Z,77.00
2022-12-15T22:22:57.593Z,80.30
2022-12-15T22:25:29.980Z,81.10
2022-12-15T22:28:04.923Z,80.70
2022-12-15T22:30:38.561Z,83.20
2022-12-15T22:33:21.717Z,80.70
2022-12-15T22:35:57.807Z,80.60
2022-12-15T22:38:30.502Z,83.90
2022-12-15T22:41:04.900Z,82.00
2022-12-15T22:43:39.885Z,82.60
2022-12-15T22:46:15.257Z,84.50
2022-12-15T22:48:48.792Z,84.20
2022-12-15T22:51:24.025Z,85.70
2022-12-15T22:53:56.264Z,83.00
2022-12-15T22:56:31.829Z,79.70
2022-12-15T22:59:08.891Z,86.10
2022-12-15T23:01:41.547Z,84.30
2022-12-15T23:04:17.157Z,89.70
2022-12-15T23:06:49.799Z,89.30
2022-12-15T23:09:23.874Z,98.80
2022-12-15T23:11:56.324Z,96.90
2022-12-15T23:14:49.213Z,95.20
2022-12-15T23:17:22.031Z,103.10
2022-12-15T23:19:54.503Z,104.90
2022-12-15T23:25:17.110Z,115.10
2022-12-15T23:27:49.643Z,117.00
2022-12-15T23:30:23.119Z,184.00
2022-12-15T23:32:55.599Z,169.60
2022-12-15T23:35:28.052Z,181.00
2022-12-15T23:38:01.297Z,149.70
2022-12-15T23:40:33.471Z,147.10
2022-12-15T23:43:07.951Z,125.00
2022-12-15T23:45:41.043Z,113.90
2022-12-15T23:48:15.184Z,117.60
2022-12-15T23:50:48.088Z,111.00
2022-12-15T23:53:20.718Z,116.20
2022-12-15T23:55:54.924Z,114.60
2022-12-15T23:58:28.183Z,116.10
